Pagrindinis puslapis
METAR-TAF:

METAR-TAF

Oro uostai :

Portsmouth International Airport at Pease

Portsmouth, Naujasis Hampšyras, Jungtinės Amerikos Valstijos

platuma: 43-05N, ilguma: 070-49W, Aukštis: 31 m

Dabartinis oras

Ataskaita buvo paskelbta 1 valandą ir 26 minutes, ne 05:56 UTC
Vėjas 17 kt iš Vakarų/Pietvakarių su gūsio iki 22 kt
Temperatūra -2°C
Drėgmė 36%
Slėgis 1002 hPa
Matomumas: 16.1 km
Išsisklaidę debesys ne aukštis 5500 ft

METAR: KPSM 280556Z 24017G22KT 10SM SCT055 M02/M15 A2959 RMK AO2A PK WND 27033/0458 SLP023 T10191147 10006 21019 52020

Laikas: 02:22 (07:22 UTC)

Prognozė

Ataskaita buvo paskelbta 1 valandą ir 50 minutes, ne 05:32 UTC
Prognozė galioja nuo 28 metu 06 UTC su 29 metu 06 UTC
Vėjas 15 kt iš Vakarų su gūsio iki 24 kt
Matomumas: 10 km
Su prošvaistėmis ne aukštis 6000 ft
Nuo 28 metu 1000 UTC
Vėjas 15 kt iš Vakarų su gūsio iki 24 kt
Matomumas: 10 km
Išsisklaidę debesys ne aukštis 25000 ft

TAF: KPSM 280532Z 2806/2906 26015G24KT P6SM BKN060 FM281000 26015G24KT P6SM SCT250

Orai ataskaitas ir orų prognozės (METAR, TAF).

turimą stotys yra geltonos ir raudonos taškus žemėlapyje.

Perkelti pele per norėdami pamatyti stoties vardą.

Tada spustelėkite, norėdami matyti oro stebėjimo ir prognozės.

Norėdami pakeisti žemėlapį: spustelėkite ant žalios mygtukų su juodo kryžiaus žemyn,; žalią mygtuką su brūkšneliu, jei norite nutolinti; arba žalių rodyklių gretimoms žemėlapius.


METAR-TAF: